createdAt,value
2017-07-25T00:03:14.247Z,97.70
2017-07-25T00:05:44.032Z,97.70
2017-07-25T00:08:12.722Z,97.50
2017-07-25T00:10:41.932Z,97.30
2017-07-25T00:13:10.769Z,97.50
2017-07-25T00:15:39.419Z,98.00
2017-07-25T00:18:08.250Z,97.50
2017-07-25T00:20:37.509Z,97.80
2017-07-25T00:23:06.705Z,97.50
2017-07-25T00:25:35.549Z,98.40
2017-07-25T00:28:04.442Z,98.10
2017-07-25T00:30:34.388Z,97.60
2017-07-25T00:33:03.240Z,97.70
2017-07-25T00:35:33.207Z,98.50
2017-07-25T00:38:01.706Z,98.80
2017-07-25T00:40:31.107Z,98.40
2017-07-25T00:43:00.717Z,99.00
2017-07-25T00:47:58.731Z,99.20
2017-07-25T00:50:28.672Z,98.90
2017-07-25T00:52:57.503Z,99.60
2017-07-25T00:55:26.716Z,99.80
2017-07-25T01:00:26.401Z,99.20
2017-07-25T01:02:54.848Z,99.90
2017-07-25T01:05:23.491Z,99.90
2017-07-25T01:07:52.333Z,99.90
2017-07-25T01:10:21.245Z,99.90
2017-07-25T01:12:50.454Z,99.90
2017-07-25T01:15:18.909Z,99.90
2017-07-25T01:17:47.507Z,99.90
2017-07-25T01:22:45.822Z,99.90
2017-07-25T01:25:15.838Z,99.90
2017-07-25T01:30:13.823Z,99.90
2017-07-25T01:32:42.263Z,99.90
2017-07-25T01:37:40.331Z,99.90
2017-07-25T01:40:09.572Z,99.90
2017-07-25T01:42:38.064Z,99.90
2017-07-25T01:45:07.713Z,99.90
2017-07-25T01:47:36.942Z,99.90
2017-07-25T01:50:06.731Z,99.90
2017-07-25T01:52:35.583Z,99.90
2017-07-25T01:55:04.073Z,99.90
2017-07-25T01:57:33.715Z,99.90
2017-07-25T02:00:02.354Z,99.90
2017-07-25T02:02:30.125Z,99.90
2017-07-25T02:04:59.452Z,99.90
2017-07-25T02:07:28.654Z,99.90
2017-07-25T02:09:57.504Z,99.90
2017-07-25T02:12:26.347Z,99.90
2017-07-25T02:17:24.689Z,99.90
2017-07-25T02:19:53.896Z,99.90
2017-07-25T02:22:22.372Z,99.90
2017-07-25T02:24:51.575Z,99.90
2017-07-25T02:27:22.783Z,99.90
2017-07-25T02:29:52.356Z,99.90
2017-07-25T02:32:21.972Z,99.90
2017-07-25T02:34:51.212Z,99.90
2017-07-25T02:37:20.056Z,99.90
2017-07-25T02:39:50.039Z,99.90
2017-07-25T02:42:19.237Z,99.90
2017-07-25T02:44:48.103Z,99.90
2017-07-25T02:47:16.992Z,99.90
2017-07-25T02:54:46.258Z,99.90
2017-07-25T02:57:14.708Z,99.90
2017-07-25T02:59:44.181Z,99.90
2017-07-25T03:02:13.778Z,99.90
2017-07-25T03:04:43.732Z,99.90
2017-07-25T03:07:13.692Z,99.90
2017-07-25T03:14:41.866Z,98.80
2017-07-25T03:17:10.338Z,99.30
2017-07-25T03:19:39.173Z,99.10
2017-07-25T03:22:08.007Z,99.60
2017-07-25T03:29:35.776Z,99.50
2017-07-25T03:37:03.584Z,99.40
2017-07-25T03:39:32.030Z,99.50
2017-07-25T03:42:02.370Z,99.20
2017-07-25T03:47:00.264Z,99.80
2017-07-25T03:49:30.264Z,99.50
2017-07-25T03:51:59.466Z,99.50
2017-07-25T03:54:30.104Z,98.80
2017-07-25T03:56:58.958Z,99.30
2017-07-25T03:59:27.783Z,99.80
2017-07-25T04:01:56.694Z,99.80
2017-07-25T04:04:26.638Z,99.20
2017-07-25T04:06:55.694Z,98.80
2017-07-25T04:11:54.379Z,99.30
2017-07-25T04:14:23.215Z,99.60
2017-07-25T04:16:52.087Z,99.70
2017-07-25T04:19:20.925Z,98.70
2017-07-25T04:21:50.514Z,98.60
2017-07-25T04:24:18.960Z,99.60
2017-07-25T04:26:48.194Z,98.90
2017-07-25T04:34:15.942Z,98.90
2017-07-25T04:36:44.800Z,98.50
2017-07-25T04:39:13.649Z,98.50
2017-07-25T04:41:42.777Z,97.60
2017-07-25T04:49:10.219Z,97.20
2017-07-25T04:51:39.098Z,97.20
2017-07-25T04:54:08.721Z,97.10
2017-07-25T04:56:39.057Z,97.50
2017-07-25T04:59:08.688Z,97.30
2017-07-25T05:01:37.892Z,97.50
2017-07-25T05:04:06.324Z,97.70
2017-07-25T05:06:34.806Z,96.80
2017-07-25T05:09:03.161Z,97.50
2017-07-25T05:11:32.173Z,96.50
2017-07-25T05:14:01.781Z,96.70
2017-07-25T05:16:30.229Z,96.30
2017-07-25T05:21:29.776Z,97.70
2017-07-25T05:26:28.887Z,97.80
2017-07-25T05:31:26.760Z,96.90
2017-07-25T05:33:56.365Z,95.90
2017-07-25T05:36:26.008Z,96.40
2017-07-25T05:38:54.437Z,95.00
2017-07-25T05:41:24.434Z,95.30
2017-07-25T05:43:53.631Z,94.90
2017-07-25T05:46:22.460Z,94.20
2017-07-25T05:48:51.346Z,93.50
2017-07-25T05:51:21.628Z,94.00
2017-07-25T05:53:50.481Z,94.30
2017-07-25T06:01:18.271Z,93.80
2017-07-25T06:03:48.262Z,94.30
2017-07-25T06:06:19.005Z,94.20
2017-07-25T06:08:49.428Z,94.00
2017-07-25T06:13:48.145Z,94.00
2017-07-25T06:16:18.109Z,93.40
2017-07-25T06:23:45.685Z,91.00
2017-07-25T06:26:14.909Z,89.50
2017-07-25T06:28:44.001Z,88.50
2017-07-25T06:33:43.522Z,88.70
2017-07-25T06:38:41.084Z,88.00
2017-07-25T06:41:11.098Z,88.70
2017-07-25T06:43:40.034Z,86.80
2017-07-25T06:46:08.535Z,87.40
2017-07-25T06:58:35.716Z,86.20
2017-07-25T07:01:05.413Z,87.20
2017-07-25T07:03:35.588Z,89.30
2017-07-25T07:06:05.195Z,90.00
2017-07-25T07:11:05.321Z,91.80
2017-07-25T07:13:33.815Z,89.80
2017-07-25T07:16:02.659Z,89.30
2017-07-25T07:18:31.714Z,85.00
2017-07-25T07:23:31.331Z,83.40
2017-07-25T07:28:29.396Z,81.70
2017-07-25T07:30:57.992Z,82.30
2017-07-25T07:33:26.851Z,82.00
2017-07-25T07:35:55.505Z,83.40
2017-07-25T07:38:25.850Z,83.90
2017-07-25T07:40:55.134Z,84.00
2017-07-25T07:45:54.346Z,85.50
2017-07-25T07:48:24.413Z,84.50
2017-07-25T07:50:52.791Z,85.70
2017-07-25T08:08:25.437Z,89.40
2017-07-25T08:10:56.756Z,88.30
2017-07-25T08:13:26.891Z,89.60
2017-07-25T08:16:00.796Z,91.50
2017-07-25T08:20:59.984Z,92.40
2017-07-25T08:23:29.184Z,92.70
2017-07-25T08:25:57.686Z,93.40
2017-07-25T08:28:27.747Z,92.80
2017-07-25T08:30:56.238Z,91.40
2017-07-25T08:33:25.508Z,90.60
2017-07-25T08:40:54.110Z,87.40
2017-07-25T08:43:23.316Z,88.80
2017-07-25T08:45:52.535Z,88.10
2017-07-25T08:48:21.264Z,88.90
2017-07-25T08:50:49.699Z,88.80
2017-07-25T08:53:18.159Z,90.90
2017-07-25T08:55:47.425Z,92.20
2017-07-25T09:00:45.511Z,94.60
2017-07-25T09:05:44.664Z,95.90
2017-07-25T09:08:13.515Z,93.10
2017-07-25T09:13:16.482Z,90.00
2017-07-25T09:15:45.617Z,88.60
2017-07-25T09:18:14.837Z,85.00
2017-07-25T09:28:14.754Z,76.00
2017-07-25T09:33:13.837Z,75.00
2017-07-25T09:38:12.379Z,80.20
2017-07-25T09:43:11.679Z,85.40
2017-07-25T09:45:40.904Z,85.00
2017-07-25T09:48:09.754Z,87.00
2017-07-25T09:50:38.246Z,89.60
2017-07-25T09:53:06.707Z,88.20
2017-07-25T09:55:35.168Z,86.20
2017-07-25T09:58:04.932Z,89.30
2017-07-25T10:00:33.427Z,90.80
2017-07-25T10:03:01.904Z,94.50
2017-07-25T10:05:31.192Z,94.50
2017-07-25T10:07:59.669Z,95.40
2017-07-25T10:10:28.531Z,96.00
2017-07-25T10:12:57.812Z,93.80
2017-07-25T10:15:26.852Z,93.20
2017-07-25T10:17:55.932Z,93.00
2017-07-25T10:22:53.933Z,94.10
2017-07-25T10:25:22.378Z,94.40
2017-07-25T10:27:51.072Z,95.90
2017-07-25T10:30:21.127Z,95.30
2017-07-25T10:32:49.599Z,96.70
2017-07-25T10:35:19.574Z,92.70
2017-07-25T10:37:48.100Z,91.50
2017-07-25T10:40:17.419Z,86.90
2017-07-25T10:45:16.093Z,77.80
2017-07-25T10:47:45.351Z,75.80
2017-07-25T10:50:13.877Z,74.90
2017-07-25T10:52:42.736Z,77.70
2017-07-25T10:55:11.594Z,79.50
2017-07-25T11:00:09.920Z,84.70
2017-07-25T11:02:39.150Z,87.10
2017-07-25T11:05:08.230Z,84.60
2017-07-25T11:07:36.690Z,82.30
2017-07-25T11:10:05.966Z,79.80
2017-07-25T11:12:35.171Z,81.20
2017-07-25T11:15:03.368Z,82.70
2017-07-25T11:17:32.255Z,84.60
2017-07-25T11:20:00.768Z,84.70
2017-07-25T11:22:30.091Z,86.80
2017-07-25T11:24:59.575Z,87.50
2017-07-25T11:27:29.165Z,89.30
2017-07-25T11:29:58.701Z,87.00
2017-07-25T11:32:27.930Z,89.80
2017-07-25T11:39:56.157Z,89.00
2017-07-25T11:42:25.437Z,88.70
2017-07-25T11:44:54.314Z,88.80
2017-07-25T11:47:23.211Z,91.80
2017-07-25T11:49:51.676Z,91.50
2017-07-25T11:52:20.927Z,92.60
2017-07-25T11:54:50.174Z,92.00
2017-07-25T11:57:18.463Z,92.00
2017-07-25T11:59:47.998Z,90.60
2017-07-25T12:02:16.484Z,89.70
2017-07-25T12:04:45.708Z,90.10
2017-07-25T12:07:14.236Z,88.20
2017-07-25T12:09:43.444Z,88.70
2017-07-25T12:12:12.317Z,87.10
2017-07-25T12:14:40.962Z,86.60
2017-07-25T12:17:10.622Z,89.00
2017-07-25T12:19:39.468Z,89.10
2017-07-25T12:22:07.913Z,89.80
2017-07-25T12:24:36.421Z,88.90
2017-07-25T12:27:05.642Z,91.50
2017-07-25T12:29:35.255Z,92.30
2017-07-25T12:32:03.763Z,94.00
2017-07-25T12:34:33.428Z,93.80
2017-07-25T12:37:02.740Z,94.20
2017-07-25T12:39:31.198Z,89.40
2017-07-25T12:42:01.169Z,89.70
2017-07-25T12:44:31.143Z,87.90
2017-07-25T12:47:00.744Z,88.20
2017-07-25T12:49:29.588Z,89.30
2017-07-25T12:51:58.065Z,87.60
2017-07-25T12:54:26.573Z,90.70
2017-07-25T12:56:55.212Z,88.30
2017-07-25T12:59:24.887Z,88.70
2017-07-25T13:02:04.955Z,89.40
2017-07-25T13:04:33.412Z,88.40
2017-07-25T13:09:32.142Z,90.60
2017-07-25T13:12:01.390Z,93.50
2017-07-25T13:14:29.889Z,91.20
2017-07-25T13:16:59.158Z,91.60
2017-07-25T13:21:58.021Z,92.40
2017-07-25T13:24:26.478Z,90.10
2017-07-25T13:26:55.361Z,91.10
2017-07-25T13:29:23.850Z,92.80
2017-07-25T13:31:53.239Z,90.60
2017-07-25T13:34:22.496Z,91.90
2017-07-25T13:36:51.338Z,92.90
2017-07-25T13:39:19.829Z,94.80
2017-07-25T13:41:48.299Z,94.50
2017-07-25T13:44:17.190Z,94.70
2017-07-25T13:46:45.676Z,93.40
2017-07-25T13:49:14.906Z,92.50
2017-07-25T13:51:43.386Z,93.50
2017-07-25T13:54:11.837Z,95.50
2017-07-25T13:56:40.337Z,95.00
2017-07-25T13:59:09.933Z,92.40
2017-07-25T14:01:38.661Z,92.80
2017-07-25T14:04:07.180Z,93.20
2017-07-25T14:06:36.044Z,92.60
2017-07-25T14:09:03.683Z,92.50
2017-07-25T14:11:32.785Z,94.40
2017-07-25T14:14:04.918Z,94.10
2017-07-25T14:16:33.436Z,93.10
2017-07-25T14:19:01.916Z,92.00
2017-07-25T14:21:30.391Z,95.00
2017-07-25T14:24:00.027Z,91.80
2017-07-25T14:26:29.629Z,94.00
2017-07-25T14:33:59.205Z,93.70
2017-07-25T14:36:28.187Z,90.30
2017-07-25T14:38:57.462Z,93.40
2017-07-25T14:41:25.926Z,92.10
2017-07-25T14:43:54.950Z,91.70
2017-07-25T14:46:23.398Z,92.10
2017-07-25T14:48:53.007Z,92.90
2017-07-25T14:51:21.475Z,93.30
2017-07-25T14:53:50.509Z,95.40
2017-07-25T14:56:20.698Z,93.30
2017-07-25T14:58:50.105Z,94.50
2017-07-25T15:01:19.030Z,91.70
2017-07-25T15:03:47.867Z,91.80
2017-07-25T15:06:17.114Z,91.40
2017-07-25T15:08:45.993Z,92.70
2017-07-25T15:11:15.223Z,92.00
2017-07-25T15:13:44.657Z,91.40
2017-07-25T15:16:13.912Z,92.80
2017-07-25T15:18:42.340Z,92.80
2017-07-25T15:21:10.780Z,92.80
2017-07-25T15:23:39.301Z,94.20
2017-07-25T15:26:08.176Z,95.00
2017-07-25T15:28:36.614Z,94.10
2017-07-25T15:31:05.919Z,94.60
2017-07-25T15:33:34.416Z,95.50
2017-07-25T15:36:03.315Z,94.20
2017-07-25T15:38:31.768Z,94.70
2017-07-25T15:41:00.284Z,95.70
2017-07-25T15:43:30.244Z,93.60
2017-07-25T15:45:59.400Z,94.30
2017-07-25T15:48:27.945Z,93.90
2017-07-25T15:50:57.256Z,94.70
2017-07-25T15:53:25.734Z,94.60
2017-07-25T15:55:54.624Z,94.40
2017-07-25T15:58:23.115Z,94.90
2017-07-25T16:00:52.372Z,94.40
2017-07-25T16:03:21.262Z,95.50
2017-07-25T16:05:50.527Z,94.50
2017-07-25T16:08:19.385Z,95.40
2017-07-25T16:10:48.792Z,96.00
2017-07-25T16:13:18.002Z,97.50
2017-07-25T16:15:47.213Z,95.30
2017-07-25T16:18:15.701Z,95.70
2017-07-25T16:20:44.977Z,95.80
2017-07-25T16:23:14.307Z,96.10
2017-07-25T16:25:44.598Z,96.40
2017-07-25T16:28:13.478Z,97.20
2017-07-25T16:30:42.308Z,98.00
2017-07-25T16:33:12.125Z,98.00
2017-07-25T16:35:40.592Z,98.70
2017-07-25T16:38:09.802Z,98.50
2017-07-25T16:40:39.808Z,99.50
2017-07-25T16:43:08.656Z,99.00
2017-07-25T16:45:37.487Z,99.60
2017-07-25T16:48:06.474Z,99.90
2017-07-25T16:50:35.386Z,99.30
2017-07-25T16:53:04.625Z,98.80
2017-07-25T16:55:33.892Z,98.90
2017-07-25T16:58:02.372Z,98.90
2017-07-25T17:00:31.595Z,98.90
2017-07-25T17:03:00.501Z,99.10
2017-07-25T17:07:58.618Z,99.90
2017-07-25T17:10:28.093Z,99.90
2017-07-25T17:12:57.568Z,99.90
2017-07-25T17:15:29.017Z,99.70
2017-07-25T17:17:58.731Z,99.70
2017-07-25T17:20:28.148Z,99.90
2017-07-25T17:22:58.817Z,99.90
2017-07-25T17:25:27.671Z,99.90
2017-07-25T17:27:56.223Z,99.90
2017-07-25T17:30:24.698Z,99.90
2017-07-25T17:32:54.041Z,99.40
2017-07-25T17:35:22.540Z,97.40
2017-07-25T17:37:51.428Z,96.70
2017-07-25T17:40:21.136Z,98.20
2017-07-25T17:42:50.025Z,98.50
2017-07-25T17:45:19.426Z,98.90
2017-07-25T17:47:48.981Z,98.90
2017-07-25T17:50:17.864Z,99.10
2017-07-25T17:52:46.973Z,99.20
2017-07-25T17:55:16.222Z,99.50
2017-07-25T17:57:45.197Z,99.80
2017-07-25T18:00:14.825Z,99.40
2017-07-25T18:02:43.933Z,99.90
2017-07-25T18:05:12.829Z,99.70
2017-07-25T18:07:42.463Z,99.90
2017-07-25T18:12:40.404Z,99.90
2017-07-25T18:15:10.037Z,99.90
2017-07-25T18:17:39.519Z,99.90
2017-07-25T18:20:08.760Z,99.90
2017-07-25T18:22:37.655Z,99.90
2017-07-25T18:25:08.219Z,99.90
2017-07-25T18:27:38.226Z,99.90
2017-07-25T18:30:07.865Z,99.90
2017-07-25T18:32:40.016Z,99.90
2017-07-25T18:35:08.500Z,99.90
2017-07-25T18:37:37.783Z,99.90
2017-07-25T18:40:06.645Z,99.90
2017-07-25T18:42:35.510Z,99.90
2017-07-25T18:45:05.000Z,99.90
2017-07-25T18:47:33.448Z,99.90
2017-07-25T18:50:02.322Z,99.90
2017-07-25T18:52:31.587Z,99.90
2017-07-25T18:55:00.806Z,99.90
2017-07-25T18:57:30.425Z,99.90
2017-07-25T19:02:28.491Z,99.90
2017-07-25T19:04:57.028Z,99.90
2017-07-25T19:07:25.667Z,99.90
2017-07-25T19:09:54.592Z,99.90
2017-07-25T19:12:23.130Z,99.90
2017-07-25T19:14:53.717Z,99.90
2017-07-25T19:17:22.588Z,99.90
2017-07-25T19:19:52.672Z,99.90
2017-07-25T19:22:21.404Z,99.90
2017-07-25T19:24:50.313Z,99.90
2017-07-25T19:27:18.802Z,99.90
2017-07-25T19:29:47.276Z,99.90
2017-07-25T19:32:15.796Z,99.90
2017-07-25T19:34:45.273Z,99.90
2017-07-25T19:37:14.527Z,99.90
2017-07-25T19:39:43.305Z,99.90
2017-07-25T19:42:12.249Z,99.90
2017-07-25T19:44:41.464Z,99.90
2017-07-25T19:47:10.375Z,99.90
2017-07-25T19:49:39.828Z,99.90
2017-07-25T19:52:09.149Z,99.90
2017-07-25T19:54:39.274Z,99.90
2017-07-25T19:57:08.217Z,99.90
2017-07-25T19:59:37.588Z,99.90
2017-07-25T20:02:06.076Z,99.90
2017-07-25T20:04:34.630Z,99.90
2017-07-25T20:07:03.142Z,99.90
2017-07-25T20:09:31.671Z,99.90
2017-07-25T20:12:00.557Z,99.90
2017-07-25T20:14:29.514Z,99.90
2017-07-25T20:16:58.369Z,99.90
2017-07-25T20:19:27.659Z,99.90
2017-07-25T20:21:56.128Z,99.90
2017-07-25T20:24:26.136Z,99.90
2017-07-25T20:26:54.589Z,99.90
2017-07-25T20:29:23.877Z,99.90
2017-07-25T20:31:53.508Z,99.90
2017-07-25T20:34:24.029Z,99.90
2017-07-25T20:36:52.892Z,99.90
2017-07-25T20:39:21.325Z,99.90
2017-07-25T20:44:22.535Z,99.90
2017-07-25T20:49:21.643Z,99.90
2017-07-25T20:54:19.960Z,99.90
2017-07-25T20:56:48.884Z,99.90
2017-07-25T20:59:17.808Z,99.90
2017-07-25T21:01:47.063Z,99.90
2017-07-25T21:04:16.351Z,99.90
2017-07-25T21:06:45.191Z,99.90
2017-07-25T21:09:13.639Z,99.90
2017-07-25T21:11:43.660Z,99.90
2017-07-25T21:14:12.102Z,99.90
2017-07-25T21:16:40.590Z,99.90
2017-07-25T21:19:09.235Z,99.90
2017-07-25T21:21:38.500Z,99.90
2017-07-25T21:24:07.353Z,99.90
2017-07-25T21:26:36.980Z,99.90
2017-07-25T21:29:05.882Z,99.90
2017-07-25T21:31:34.715Z,99.90
2017-07-25T21:34:03.632Z,99.90
2017-07-25T21:36:33.248Z,99.90
2017-07-25T21:39:02.102Z,99.90
2017-07-25T21:41:30.558Z,99.90
2017-07-25T21:43:59.482Z,99.90
2017-07-25T21:46:28.360Z,99.90
2017-07-25T21:48:57.221Z,99.90
2017-07-25T21:51:26.216Z,99.90
2017-07-25T21:53:56.409Z,99.90
2017-07-25T21:56:26.361Z,99.90
2017-07-25T21:58:54.849Z,99.90
2017-07-25T22:01:35.118Z,99.90
2017-07-25T22:04:15.138Z,99.90
2017-07-25T22:06:43.989Z,99.90
2017-07-25T22:09:13.048Z,99.90
2017-07-25T22:11:41.544Z,99.90
2017-07-25T22:14:11.723Z,99.90
2017-07-25T22:16:41.702Z,99.90
2017-07-25T22:19:11.119Z,99.90
2017-07-25T22:21:40.355Z,99.90
2017-07-25T22:24:09.228Z,99.90
2017-07-25T22:26:37.711Z,99.90
2017-07-25T22:29:06.232Z,99.90
2017-07-25T22:31:34.728Z,99.90
2017-07-25T22:34:03.192Z,99.90
2017-07-25T22:36:32.206Z,99.90
2017-07-25T22:39:02.198Z,99.90
2017-07-25T22:41:31.071Z,99.90
2017-07-25T22:44:00.319Z,99.90
2017-07-25T22:46:29.557Z,99.90
2017-07-25T22:48:59.179Z,99.90
2017-07-25T22:51:28.826Z,99.90
2017-07-25T22:53:57.752Z,99.90
2017-07-25T22:56:27.356Z,99.90
2017-07-25T22:58:56.378Z,99.90
2017-07-25T23:01:24.915Z,99.90
2017-07-25T23:03:54.227Z,99.90
2017-07-25T23:06:22.719Z,99.90
2017-07-25T23:08:51.227Z,99.90
2017-07-25T23:11:20.268Z,99.90
2017-07-25T23:13:49.701Z,99.90
2017-07-25T23:16:18.615Z,99.90
2017-07-25T23:18:47.205Z,99.90
2017-07-25T23:21:17.179Z,99.90
2017-07-25T23:28:45.072Z,99.90
2017-07-25T23:33:44.199Z,99.90
2017-07-25T23:36:13.098Z,99.90
2017-07-25T23:38:41.728Z,99.90
2017-07-25T23:41:11.385Z,99.90
2017-07-25T23:43:40.605Z,99.90
2017-07-25T23:46:09.468Z,99.90
2017-07-25T23:48:38.302Z,99.90
2017-07-25T23:51:09.030Z,99.90
2017-07-25T23:53:37.486Z,99.90
2017-07-25T23:56:05.991Z,99.90
2017-07-25T23:58:34.532Z,99.90
